Data for 08/06/2013

Time Sea-Level Adjusted Pressure Absolute Pressure Temperature Relative Humidity Dew Point   
(mb) (inHg) (mb) (inHg) (C) (F) (%) (C) (F)
00:05 1019 30.09 849 25.07 14.6 58.2 66 8.4 47.2
00:10 1019 30.09 849 25.07 14.9 58.7 64 8.1 46.5
00:15 1019 30.09 849 25.07 15.2 59.4 63 8.3 46.9
00:20 1019 30.09 848 25.04 14.8 58.7 72 9.8 49.7
00:25 1019 30.09 849 25.07 14.2 57.5 75 9.9 49.9
00:30 1019 30.09 849 25.07 13.9 57.1 77 9.9 49.8
00:35 1019 30.09 849 25.07 13.7 56.7 71 8.7 47.6
00:40 1019 30.09 849 25.07 14.2 57.6 74 9.7 49.5
00:45 1019 30.09 849 25.07 14.2 57.5 72 9.3 48.7
00:50 1019 30.09 849 25.07 14.4 57.9 70 9.1 48.4
00:55 1019 30.09 849 25.07 14.2 57.5 72 9.3 48.7
01:00 1019 30.09 849 25.07 13.9 56.9 74 9.3 48.8
01:05 1019 30.09 849 25.07 14 57.1 70 8.7 47.6
01:10 1019 30.09 849 25.07 14.4 58 66 8.2 46.7
01:15 1019 30.09 849 25.07 14.7 58.5 64 8.1 46.6
01:20 1019 30.09 849 25.07 15 58.9 64 8.4 47.1
01:25 1019 30.09 849 25.07 14.8 58.7 64 8.1 46.6
01:30 1019 30.09 849 25.07 14.9 58.8 63 8 46.3
01:35 1019 30.09 848 25.04 14.8 58.7 65 8.4 47.1
01:40 1019 30.09 848 25.04 14.4 58 67 8.4 47.1
01:45 1019 30.09 849 25.07 14.2 57.6 66 8 46.4
01:50 1019 30.09 848 25.04 14.1 57.3 69 8.6 47.5
01:55 1019 30.09 848 25.04 13.8 56.8 70 8.4 47.2
02:00 1019 30.09 848 25.04 13.7 56.7 70 8.5 47.2
02:05 1019 30.09 848 25.04 13.6 56.6 69 8.1 46.7
02:10 1019 30.09 848 25.04 13.7 56.7 69 8.3 46.9
02:15 1019 30.09 849 25.07 13.5 56.3 72 8.7 47.6
02:20 1019 30.09 849 25.07 13.2 55.7 73 8.4 47.1
02:25 1019 30.09 849 25.07 13.1 55.6 73 8.4 47.2
02:30 1019 30.09 849 25.07 13 55.4 72 8.2 46.8
02:35 1019 30.09 849 25.07 13.1 55.5 71 8 46.4
02:40 1019 30.09 849 25.07 13.1 55.6 71 8 46.5
02:45 1019 30.09 849 25.07 13.2 55.8 72 8.2 46.8
02:50 1019 30.09 849 25.07 13.3 55.9 71 8.1 46.6
02:55 1019 30.09 849 25.07 13.2 55.7 68 7.5 45.5
03:00 1019 30.09 849 25.07 13.3 55.9 70 7.9 46.1
03:05 1020 30.12 849 25.07 12.9 55.2 72 8 46.4
03:10 1020 30.12 849 25.07 12.7 54.8 73 7.9 46.3
03:15 1020 30.12 849 25.07 12.5 54.5 74 8 46.4
03:20 1020 30.12 849 25.07 12.2 54 75 7.9 46.3
03:25 1020 30.12 849 25.07 12 53.7 74 7.6 45.7
03:30 1020 30.12 849 25.07 12 53.6 73 7.4 45.3
03:35 1020 30.12 849 25.07 12.1 53.8 71 7 44.6
03:40 1020 30.12 849 25.07 12.3 54.1 70 7.1 44.7
03:45 1020 30.12 849 25.07 12.4 54.4 69 6.9 44.5
03:50 1020 30.12 849 25.07 12.5 54.4 70 7.2 44.9
03:55 1020 30.12 849 25.07 12.1 53.7 70 6.8 44.3
04:00 1020 30.12 849 25.07 12.1 53.8 71 7.1 44.8
04:05 1020 30.12 849 25.07 11.9 53.4 72 7.1 44.7
04:10 1020 30.12 849 25.07 11.8 53.2 72 7 44.5
04:15 1020 30.12 849 25.07 11.8 53.3 71 6.8 44.2
04:20 1020 30.12 849 25.07 11.9 53.5 69 6.4 43.6
04:25 1020 30.12 849 25.07 12.1 53.7 71 7.1 44.8
04:30 1020 30.12 849 25.07 11.7 53 74 7.2 44.9
04:35 1020 30.12 849 25.07 11.4 52.6 73 6.9 44.4
04:40 1020 30.12 849 25.07 11.2 52.2 75 7 44.5
04:45 1020 30.12 849 25.07 11 51.7 74 6.5 43.7
04:50 1020 30.12 849 25.07 11.2 52.2 72 6.4 43.6
04:55 1020 30.12 849 25.07 11.4 52.5 71 6.4 43.5
05:00 1020 30.12 849 25.07 11.6 52.9 70 6.3 43.4
05:05 1020 30.12 849 25.07 11.8 53.2 70 6.4 43.6
05:10 1020 30.12 849 25.07 11.9 53.5 68 6.3 43.3
05:15 1020 30.12 849 25.07 12.1 53.7 68 6.5 43.7
05:20 1020 30.12 849 25.07 11.9 53.5 69 6.6 43.8
05:25 1020 30.12 850 25.1 11.6 53 70 6.4 43.6
05:30 1020 30.12 850 25.1 11.6 52.9 69 6.2 43.1
05:35 1020 30.12 850 25.1 11.9 53.3 68 6.2 43.2
05:40 1020 30.12 850 25.1 11.8 53.2 70 6.5 43.7
05:45 1020 30.12 850 25.1 11.4 52.6 72 6.6 43.8
05:50 1020 30.12 850 25.1 11.3 52.4 72 6.5 43.8
05:55 1020 30.12 850 25.1 11.2 52.1 73 6.6 43.8
06:00 1020 30.12 850 25.1 11.2 52.1 73 6.6 43.9
06:05 1021 30.15 850 25.1 11.3 52.3 73 6.7 44
06:10 1021 30.15 850 25.1 11.4 52.6 71 6.4 43.6
06:15 1021 30.15 850 25.1 11.8 53.3 69 6.5 43.6
06:20 1021 30.15 850 25.1 12.1 53.8 69 6.5 43.8
06:25 1021 30.15 850 25.1 12.3 54.2 69 6.9 44.4
06:30 1021 30.15 850 25.1 12.5 54.6 69 7 44.6
06:35 1021 30.15 850 25.1 12.9 55.1 68 7.1 44.7
06:40 1021 30.15 850 25.1 13 55.5 67 7 44.7
06:45 1021 30.15 850 25.1 13.2 55.8 66 7 44.6
06:50 1021 30.15 850 25.1 13.4 56.2 66 7.2 45
06:55 1021 30.15 850 25.1 14 57.2 64 7.5 45.4
07:00 1021 30.15 850 25.1 14.5 58.1 62 7.5 45.4
07:05 1021 30.15 850 25.1 14.8 58.6 63 7.7 45.9
07:10 1021 30.15 850 25.1 15 59 62 8 46.3
07:15 1021 30.15 850 25.1 15.1 59.1 64 8.3 47
07:20 1021 30.15 850 25.1 15.4 59.8 60 7.7 45.9
07:25 1021 30.15 850 25.1 16 60.9 59 8.1 46.6
07:30 1021 30.15 850 25.1 16.5 61.6 57 8 46.5
07:35 1021 30.15 850 25.1 16.9 62.4 55 7.9 46.2
07:40 1021 30.15 850 25.1 16.8 62.3 54 7.6 45.6
07:45 1021 30.15 850 25.1 17.4 63.3 52 7.4 45.3
07:50 1021 30.15 850 25.1 17.6 63.7 51 7.5 45.5
07:55 1021 30.15 850 25.1 17.6 63.6 49 7 44.6
08:00 1021 30.15 850 25.1 17.9 64.3 50 7.5 45.4
08:05 1021 30.15 850 25.1 18 64.4 52 8 46.5
08:10 1021 30.15 851 25.13 18.4 65.1 50 7.8 46.1
08:15 1021 30.15 851 25.13 18.6 65.6 48 7.5 45.5
08:20 1021 30.15 851 25.13 19 66.3 48 7.9 46.2
08:25 1021 30.15 851 25.13 19.1 66.3 47 7.8 46
08:30 1021 30.15 851 25.13 19.6 67.3 45 7.6 45.7
08:35 1021 30.15 851 25.13 19.8 67.6 46 8.1 46.6
08:40 1021 30.15 851 25.13 19.5 67.2 48 8.4 47.2
08:45 1021 30.15 851 25.13 19.5 67.1 45 7.4 45.3
08:50 1021 30.15 851 25.13 20.1 68.1 45 7.9 46.2
08:55 1021 30.15 850 25.1 20.3 68.5 44 7.9 46.3
09:00 1021 30.15 850 25.1 20.1 68.1 45 7.8 46.1
09:05 1021 30.15 850 25.1 20.4 68.8 42 7.2 44.9
09:10 1021 30.15 850 25.1 20.7 69.2 43 7.8 46
09:15 1021 30.15 851 25.13 20.8 69.4 44 8.3 46.9
09:20 1021 30.15 851 25.13 20.8 69.4 43 7.8 46.1
09:25 1021 30.15 851 25.13 21.5 70.7 40 7.4 45.3
09:30 1021 30.15 851 25.13 21.4 70.5 42 8.1 46.5
09:35 1021 30.15 851 25.13 21 69.9 44 8.4 47.2
09:40 1021 30.15 851 25.13 20.8 69.5 42 7.6 45.6
09:45 1021 30.15 851 25.13 20.5 68.9 42 7.2 45
09:50 1021 30.15 850 25.1 21.1 70 41 7.6 45.6
09:55 1021 30.15 850 25.1 21.3 70.4 40 7.5 45.5
10:00 1021 30.15 850 25.1 21.4 70.6 41 7.7 45.8
10:05 1021 30.15 851 25.13 21.9 71.3 38 7.1 44.7
10:10 1021 30.15 850 25.1 22.8 73.1 35 6.8 44.2
10:15 1021 30.15 850 25.1 22.9 73.3 34 6.6 43.9
10:20 1021 30.15 850 25.1 23 73.4 32 5.8 42.5
10:25 1021 30.15 850 25.1 23.3 74 33 6.5 43.7
10:30 1021 30.15 850 25.1 23.6 74.4 32 6.1 43
10:35 1021 30.15 850 25.1 23.7 74.7 32 6.1 43
10:40 1021 30.15 850 25.1 22.6 72.7 34 6.1 43.1
10:45 1021 30.15 850 25.1 22.9 73.2 33 5.8 42.5
10:50 1021 30.15 850 25.1 23 73.3 32 5.4 41.7
10:55 1021 30.15 850 25.1 23.3 73.9 32 5.8 42.4
11:00 1021 30.15 850 25.1 23.5 74.4 30 5.3 41.5
11:05 1021 30.15 850 25.1 23.7 74.7 31 5.8 42.5
11:10 1021 30.15 850 25.1 24 75.2 30 5.4 41.8
11:15 1021 30.15 850 25.1 23.9 75.1 29 4.8 40.7
11:20 1021 30.15 850 25.1 24.7 76.4 27 4.4 40
11:25 1021 30.15 850 25.1 24.7 76.5 29 5.9 42.6
11:30 1021 30.15 850 25.1 24.5 76 29 5.3 41.5
11:35 1021 30.15 850 25.1 24.5 76.1 26 3.8 38.9
11:40 1021 30.15 850 25.1 24.5 76.1 26 4.1 39.4
11:45 1021 30.15 850 25.1 24.7 76.4 27 4.5 40.1
11:50 1021 30.15 850 25.1 25.1 77.1 24 3.4 38.2
11:55 1021 30.15 850 25.1 24.8 76.6 27 4.6 40.3
12:00 1021 30.15 850 25.1 25 77 26 4.4 39.8
12:05 1021 30.15 850 25.1 24.7 76.4 25 3.4 38.1
12:10 1021 30.15 850 25.1 25 77 23 2.9 37.2
12:15 1021 30.15 850 25.1 25.3 77.5 24 3.4 38
12:20 1021 30.15 850 25.1 25.6 78 25 4.2 39.5
12:25 1021 30.15 850 25.1 25.4 77.8 23 3 37.4
12:30 1021 30.15 850 25.1 25.6 78 22 2.8 37.1
12:35 1021 30.15 850 25.1 25.6 78 22 2.8 37
12:40 1021 30.15 850 25.1 25.6 78 24 3.5 38.4
12:45 1021 30.15 850 25.1 25.4 77.7 24 3.6 38.6
12:50 1021 30.15 850 25.1 25.6 78 24 3.6 38.5
12:55 1021 30.15 850 25.1 25.4 77.8 24 3.4 38.1
13:00 1021 30.15 850 25.1 25.5 77.9 22 2.6 36.6
13:05 1021 30.15 850 25.1 25.5 77.8 23 2.9 37.1
13:10 1020 30.12 850 25.1 25.9 78.6 22 2.6 36.6
13:15 1020 30.12 850 25.1 26 78.8 23 3.4 38.1
13:20 1020 30.12 850 25.1 26.2 79.1 23 3.4 38.2
13:25 1020 30.12 850 25.1 25.4 77.8 23 3.1 37.6
13:30 1020 30.12 850 25.1 25.8 78.4 22 2.9 37.1
13:35 1020 30.12 850 25.1 26.6 79.8 22 3.2 37.8
13:40 1020 30.12 850 25.1 26.5 79.8 21 2.9 37.2
13:45 1020 30.12 850 25.1 26.3 79.3 22 3.4 38
13:50 1020 30.12 850 25.1 26.5 79.6 22 3 37.5
13:55 1020 30.12 849 25.07 26.4 79.6 21 2.9 37.2
14:00 1020 30.12 849 25.07 26 78.8 23 3.6 38.4
14:05 1020 30.12 849 25.07 25.9 78.6 21 1.9 35.4
14:10 1020 30.12 849 25.07 26.6 79.9 21 2.5 36.5
14:15 1020 30.12 849 25.07 26.7 80 21 2.6 36.6
14:20 1020 30.12 849 25.07 26.5 79.7 20 2.2 35.9
14:25 1020 30.12 849 25.07 26.9 80.3 21 2.9 37.2
14:30 1020 30.12 849 25.07 26.8 80.2 20 2.4 36.2
14:35 1020 30.12 849 25.07 27.1 80.8 19 2.1 35.7
14:40 1020 30.12 849 25.07 27.3 81.1 20 2.7 36.8
14:45 1020 30.12 849 25.07 27.5 81.5 19 2.2 36
14:50 1020 30.12 849 25.07 27.7 81.9 19 2.3 36.2
14:55 1020 30.12 849 25.07 27.3 81.1 20 2.5 36.5
15:00 1020 30.12 849 25.07 26.4 79.6 22 3.1 37.5
15:05 1020 30.12 849 25.07 26.2 79.2 22 2.9 37.2
15:10 1020 30.12 849 25.07 27.2 81 20 2.8 37
15:15 1020 30.12 849 25.07 27 80.6 21 3.3 38
15:20 1020 30.12 849 25.07 26.3 79.3 21 2.5 36.4
15:25 1020 30.12 849 25.07 26.7 80.1 21 3.1 37.5
15:30 1020 30.12 849 25.07 27.3 81.2 20 2.6 36.6
15:35 1020 30.12 849 25.07 27.5 81.5 19 2.4 36.4
15:40 1020 30.12 849 25.07 27.5 81.5 20 2.9 37.1
15:45 1020 30.12 849 25.07 27.5 81.5 19 2.4 36.3
15:50 1020 30.12 849 25.07 27.5 81.5 19 2.3 36.1
15:55 1020 30.12 849 25.07 27.8 82 20 2.8 37
16:00 1020 30.12 849 25.07 28 82.4 19 2.5 36.5
16:05 1020 30.12 849 25.07 26.8 80.3 20 2.3 36.1
16:10 1020 30.12 849 25.07 26.6 79.9 20 1.9 35.5
16:15 1020 30.12 849 25.07 27.2 80.9 20 2.4 36.2
16:20 1020 30.12 849 25.07 27.3 81.2 19 1.6 34.9
16:25 1020 30.12 849 25.07 27.1 80.7 18 1.3 34.4
16:30 1020 30.12 849 25.07 27.4 81.3 18 1.2 34.1
16:35 1020 30.12 849 25.07 27.7 81.8 18 1.8 35.3
16:40 1020 30.12 849 25.07 27 80.6 19 1.9 35.4
16:45 1020 30.12 849 25.07 27.4 81.4 18 1.3 34.4
16:50 1020 30.12 849 25.07 27.7 81.9 18 1.2 34.2
16:55 1020 30.12 849 25.07 27.5 81.5 18 1.2 34.2
17:00 1020 30.12 849 25.07 27 80.5 19 1.9 35.4
17:05 1020 30.12 849 25.07 27.1 80.7 19 1.9 35.3
17:10 1019 30.09 849 25.07 27.4 81.3 18 1.6 34.8
17:15 1019 30.09 849 25.07 27.4 81.3 19 2 35.5
17:20 1019 30.09 849 25.07 26.3 79.3 20 1.8 35.3
17:25 1019 30.09 849 25.07 25.8 78.5 20 1.1 34
17:30 1019 30.09 849 25.07 25.8 78.4 20 1.1 34
17:35 1019 30.09 849 25.07 26.1 79 19 0.7 33.2
17:40 1019 30.09 849 25.07 26.9 80.3 19 1.4 34.5
17:45 1019 30.09 849 25.07 26 78.9 20 1.3 34.4
17:50 1019 30.09 849 25.07 25.7 78.3 20 1.2 34.1
17:55 1019 30.09 849 25.07 25.7 78.3 20 1.4 34.6
18:00 1019 30.09 849 25.07 25.6 78 22 2.3 36.1
18:05 1019 30.09 849 25.07 25.6 78 20 1.5 34.6
18:10 1019 30.09 849 25.07 25.6 78 21 1.6 34.9
18:15 1019 30.09 849 25.07 25.5 77.9 21 1.6 34.9
18:20 1019 30.09 849 25.07 25.2 77.4 21 1.8 35.2
18:25 1019 30.09 849 25.07 25 77 21 1.4 34.5
18:30 1019 30.09 848 25.04 24.9 76.8 22 1.8 35.2
18:35 1019 30.09 848 25.04 24.9 76.8 22 2 35.6
18:40 1019 30.09 848 25.04 25 77 22 2 35.6
18:45 1019 30.09 849 25.07 24.8 76.6 22 2.1 35.8
18:50 1019 30.09 848 25.04 24.7 76.4 23 2.6 36.7
18:55 1019 30.09 848 25.04 24.8 76.6 23 2.2 36
19:00 1019 30.09 848 25.04 24.7 76.4 23 2.5 36.5
19:05 1019 30.09 848 25.04 24.6 76.2 22 1.7 35.1
19:10 1019 30.09 848 25.04 24.5 76.2 24 2.8 37.1
19:15 1019 30.09 848 25.04 24.5 76.2 23 2.6 36.6
19:20 1019 30.09 849 25.07 24.4 75.9 26 4 39.1
19:25 1019 30.09 849 25.07 24.2 75.6 27 4.4 40
19:30 1019 30.09 849 25.07 24.1 75.3 23 2 35.6
19:35 1019 30.09 849 25.07 23.9 75.1 27 4 39.1
19:40 1019 30.09 849 25.07 23.6 74.5 28 4.2 39.5
19:45 1019 30.09 849 25.07 23.1 73.6 28 3.8 38.8
19:50 1019 30.09 849 25.07 23.1 73.5 27 3.3 38
19:55 1019 30.09 849 25.07 23 73.4 30 4.5 40.2
20:00 1020 30.12 849 25.07 22.7 72.9 32 5.5 41.9
20:05 1020 30.12 849 25.07 22 71.5 37 6.9 44.5
20:10 1020 30.12 849 25.07 20.9 69.7 37 6 42.8
20:15 1020 30.12 849 25.07 20.6 69.1 39 6.2 43.1
20:20 1020 30.12 849 25.07 20.1 68.1 41 6.4 43.6
20:25 1020 30.12 849 25.07 19.5 67.2 44 7.2 44.9
20:30 1020 30.12 849 25.07 18.9 65.9 39 4.9 40.9
20:35 1020 30.12 849 25.07 19.3 66.8 35 3.5 38.4
20:40 1020 30.12 849 25.07 19.3 66.7 35 3.7 38.7
20:45 1020 30.12 849 25.07 19 66.2 36 3.6 38.5
20:50 1020 30.12 849 25.07 19 66.2 33 2.6 36.7
20:55 1020 30.12 849 25.07 19.7 67.4 33 3 37.5
21:00 1020 30.12 849 25.07 19.9 67.8 33 3.2 37.8
21:05 1020 30.12 849 25.07 20.1 68.2 33 3.6 38.4
21:10 1020 30.12 849 25.07 20.2 68.4 33 3.6 38.5
21:15 1020 30.12 849 25.07 20.2 68.4 33 3.7 38.6
21:20 1020 30.12 849 25.07 20.2 68.3 33 3.8 38.8
21:25 1020 30.12 849 25.07 20 68 34 3.7 38.6
21:30 1020 30.12 849 25.07 19.9 67.7 34 3.7 38.6
21:35 1020 30.12 849 25.07 19.7 67.5 34 3.7 38.7
21:40 1020 30.12 849 25.07 19.6 67.3 35 3.9 39.1
21:45 1020 30.12 849 25.07 19.4 67 35 3.8 38.9
21:50 1020 30.12 849 25.07 19.3 66.7 36 3.9 39
21:55 1020 30.12 849 25.07 19.2 66.6 36 3.8 38.8
22:00 1020 30.12 849 25.07 19.2 66.6 35 3.6 38.4
22:05 1020 30.12 849 25.07 19.3 66.8 35 3.5 38.3
22:10 1020 30.12 849 25.07 19.3 66.7 35 3.5 38.2
22:15 1020 30.12 849 25.07 19.2 66.6 34 3.3 38
22:20 1020 30.12 849 25.07 19.2 66.6 34 3.2 37.8
22:25 1020 30.12 850 25.1 19.2 66.5 34 3.2 37.7
22:30 1020 30.12 850 25.1 19.1 66.4 34 3.1 37.5
22:35 1020 30.12 850 25.1 19.1 66.4 34 2.8 37.1
22:40 1020 30.12 849 25.07 19.1 66.4 33 2.7 36.9
22:45 1020 30.12 850 25.1 19.1 66.4 34 2.8 37.1
22:50 1020 30.12 850 25.1 18.9 66.1 34 2.8 37.1
22:55 1020 30.12 850 25.1 18.8 65.8 34 2.8 37.1
23:00 1020 30.12 850 25.1 18.7 65.7 34 2.7 36.8
23:05 1020 30.12 849 25.07 18.8 65.8 34 2.7 36.8
23:10 1020 30.12 849 25.07 18.8 65.8 34 2.6 36.6
23:15 1020 30.12 850 25.1 18.9 66 33 2.4 36.3
23:20 1020 30.12 850 25.1 18.9 66 33 2.5 36.6
23:25 1020 30.12 849 25.07 18.7 65.7 33 2.4 36.3
23:30 1020 30.12 849 25.07 18.7 65.6 33 2.4 36.3
23:35 1020 30.12 850 25.1 18.6 65.5 34 2.4 36.3
23:40 1020 30.12 850 25.1 18.5 65.3 34 2.3 36.1
23:45 1020 30.12 850 25.1 18.4 65.2 34 2.2 36
23:50 1020 30.12 850 25.1 18.4 65.1 34 2.2 36
23:55 1020 30.12 849 25.07 18.3 64.9 34 2.4 36.4
24:00 1020 30.12 849 25.07 18.2 64.8 34 2 35.6